PAGS

Details ICAO PAGS (GST)
Name GUSTAVUS
Region USA (Alaska)
Timezone America/Juneau (UTC-9.0)
Plans Departing 29
Arriving 36
Stats Elevation 34 ft / 10 m (AMSL)
Location 58.424690° -135.708964°
Runways 2
Magnetic Variation 19.055° E
Sunrise 2017-12-10 17:42:12 UTC / 2017-12-10 08:42:12 Local
Sunset 2017-12-11 00:12:20 UTC / 2017-12-10 15:12:20 Local
Advertisement - Login to hide

Runways

ID Width Length Bearing (true) Bearing (mag) Surface Threshold Offset Overrun Length
02 60 ft / 18 m 3,003 ft / 915 m 40.96° 21.91° Asphalt 0 ft / 0 m 0 ft / 0 m
11 150 ft / 46 m 6,704 ft / 2,044 m 135.06° 116.01° Asphalt 0 ft / 0 m 0 ft / 0 m
20 60 ft / 18 m 3,003 ft / 915 m 220.97° 201.92° Asphalt 0 ft / 0 m 0 ft / 0 m
29 150 ft / 46 m 6,704 ft / 2,044 m 315.08° 296.03° Asphalt 0 ft / 0 m 0 ft / 0 m

Map

Weather


0- 5 10 15 20 25 30 35+ Temperature / ° C

Clouds and Precipitation
Forecast for 2017-12-11 06:00 UTC. Updated 2 hours ago

Ground ~20,000 ft ~40,000 ft Winds

METAR

PAGS 110306Z AUTO 33008KT 9SM -RA FEW005 OVC039 04/04 A2990 RMK AO2 P0002

TAF

TAF PAGS 102338Z 1100/1124 33004KT P6SM SCT025 OVC140 FM110300 33006KT P6SM -RA SCT015 OVC035 WS020/12045KT FM110600 13018G28KT 4SM RA BR BKN015 OVC030 WS020/14045KT FM111600 11009KT 4SM RA BR BKN015 OVC030 WS020/14045KT AMD LTD TO CLD VIS AND WIND

Frequencies

Recorded 125.90 MHz AWOS 3
Unicom 122.50 MHz CTAF
Warning: Do not use this data for real-world aviation or navigation. No guarantee of current accuracy is given.